Time;durP1;ratioP1;P1;durP2;ratioP2;P2;SDS_P1;SDS_P2;PMS_P1;PMS_P2;Temp;Humidity;BMP_temperature;BMP_pressure;BME280_temperature;BME280_humidity;BME280_pressure;Samples;Min_cycle;Max_cycle;Signal;HPM_P1;HPM_P2
2022/11/24 00:02:13;;;;;;;9.63;3.37;;;;;;;;;;5026665;28;20227;-81
2022/11/24 00:04:40;;;;;;;9.00;3.17;;;;;;;;;;5024751;28;20211;-80
2022/11/24 00:07:07;;;;;;;7.57;3.43;;;;;;;;;;5022889;28;20231;-81
2022/11/24 00:09:34;;;;;;;9.27;3.87;;;;;;;;;;5030596;28;20234;-81
2022/11/24 00:12:01;;;;;;;9.87;3.27;;;;;;;;;;5023721;28;20234;-81
2022/11/24 00:14:28;;;;;;;7.83;3.20;;;;;;;;;;5031623;28;20203;-81
2022/11/24 00:16:55;;;;;;;13.70;3.80;;;;;;;;;;5031048;28;20237;-81
2022/11/24 00:19:24;;;;;;;12.23;3.93;;;;;;;;;;5031288;28;20796;-81
2022/11/24 00:21:51;;;;;;;13.20;3.67;;;;;;;;;;5031381;28;20326;-81
2022/11/24 00:24:18;;;;;;;10.63;3.27;;;;;;;;;;5031626;28;20210;-81
2022/11/24 00:26:45;;;;;;;9.63;3.70;;;;;;;;;;5031256;28;20247;-81
2022/11/24 00:29:12;;;;;;;10.27;3.90;;;;;;;;;;5031051;28;20242;-81
2022/11/24 00:31:40;;;;;;;9.47;3.53;;;;;;;;;;5031264;28;20234;-81
2022/11/24 00:34:08;;;;;;;10.83;3.33;;;;;;;;;;5031405;28;20663;-81
2022/11/24 00:36:37;;;;;;;13.50;3.03;;;;;;;;;;5030978;28;20234;-81
2022/11/24 00:39:05;;;;;;;9.33;3.77;;;;;;;;;;5030646;28;20746;-81
2022/11/24 00:41:33;;;;;;;11.47;4.10;;;;;;;;;;5031068;28;20285;-81
2022/11/24 00:44:00;;;;;;;15.20;4.00;;;;;;;;;;5031568;28;20202;-80
2022/11/24 00:46:28;;;;;;;10.73;4.23;;;;;;;;;;5029904;28;20237;-81
2022/11/24 00:48:55;;;;;;;15.60;4.83;;;;;;;;;;5031076;28;20219;-81
2022/11/24 00:51:23;;;;;;;10.90;4.33;;;;;;;;;;5029139;28;20711;-81
2022/11/24 00:53:52;;;;;;;10.77;4.00;;;;;;;;;;5031526;28;20642;-80
2022/11/24 00:56:19;;;;;;;8.77;3.40;;;;;;;;;;5014452;28;20785;-80
2022/11/24 00:58:46;;;;;;;14.03;4.00;;;;;;;;;;5029287;28;20239;-80
2022/11/24 01:01:14;;;;;;;12.90;3.30;;;;;;;;;;5022865;28;20238;-80
2022/11/24 01:03:42;;;;;;;13.57;3.70;;;;;;;;;;5030846;28;20214;-81
2022/11/24 01:06:10;;;;;;;12.37;3.67;;;;;;;;;;5028351;28;20234;-80
2022/11/24 01:08:38;;;;;;;14.67;4.63;;;;;;;;;;5029067;28;20215;-80
2022/11/24 01:11:10;;;;;;;12.27;3.93;;;;;;;;;;5029908;28;20235;-81
2022/11/24 01:13:38;;;;;;;14.43;2.93;;;;;;;;;;5016443;28;20578;-80
2022/11/24 01:16:05;;;;;;;18.10;4.90;;;;;;;;;;5033382;28;20702;-81
2022/11/24 01:18:32;;;;;;;11.03;4.23;;;;;;;;;;5031113;28;20707;-80
2022/11/24 01:21:00;;;;;;;14.87;4.70;;;;;;;;;;5032778;28;20615;-80
2022/11/24 01:23:27;;;;;;;12.97;4.30;;;;;;;;;;5034327;28;20217;-80
2022/11/24 01:25:54;;;;;;;11.97;4.17;;;;;;;;;;5034224;28;20244;-80
2022/11/24 01:28:22;;;;;;;14.93;3.90;;;;;;;;;;5031162;28;20227;-81
2022/11/24 01:30:57;;;;;;;12.03;3.70;;;;;;;;;;5038617;23;20246;-84
2022/11/24 01:33:24;;;;;;;16.07;4.87;;;;;;;;;;5016229;28;20571;-84
2022/11/24 01:35:51;;;;;;;13.03;4.90;;;;;;;;;;5015002;28;20235;-84
2022/11/24 01:38:18;;;;;;;8.37;3.50;;;;;;;;;;5027224;28;20229;-84
2022/11/24 01:40:45;;;;;;;10.00;3.83;;;;;;;;;;5023677;28;20239;-84
2022/11/24 01:43:16;;;;;;;14.50;3.93;;;;;;;;;;4995915;28;20581;-84
2022/11/24 01:45:46;;;;;;;15.13;4.63;;;;;;;;;;5004886;28;20235;-84
2022/11/24 01:48:16;;;;;;;12.37;3.03;;;;;;;;;;5014914;28;20873;-84
2022/11/24 01:50:43;;;;;;;10.47;3.90;;;;;;;;;;5014673;28;20243;-84
2022/11/24 01:53:11;;;;;;;10.07;3.20;;;;;;;;;;5014863;28;20211;-84
2022/11/24 01:55:39;;;;;;;15.77;4.20;;;;;;;;;;5014725;28;20231;-84
2022/11/24 01:58:08;;;;;;;11.37;3.40;;;;;;;;;;5016402;28;20227;-84
2022/11/24 02:00:37;;;;;;;6.50;3.03;;;;;;;;;;5014211;28;20240;-84
2022/11/24 02:03:05;;;;;;;7.40;3.17;;;;;;;;;;5012854;28;20253;-84
2022/11/24 02:05:36;;;;;;;11.87;3.77;;;;;;;;;;5014414;28;20707;-84
2022/11/24 02:08:03;;;;;;;9.97;3.67;;;;;;;;;;5014448;28;20240;-84
2022/11/24 02:10:30;;;;;;;10.70;3.90;;;;;;;;;;5016236;28;20239;-84
2022/11/24 02:12:59;;;;;;;11.00;3.53;;;;;;;;;;5017735;28;20204;-84
2022/11/24 02:15:26;;;;;;;12.77;3.97;;;;;;;;;;5014356;28;20235;-84
2022/11/24 02:17:53;;;;;;;16.50;5.20;;;;;;;;;;5014635;28;20568;-84
2022/11/24 02:20:22;;;;;;;9.37;3.97;;;;;;;;;;5014303;28;20227;-84
2022/11/24 02:22:54;;;;;;;11.70;4.10;;;;;;;;;;5014843;28;20261;-84
2022/11/24 02:25:24;;;;;;;12.43;4.27;;;;;;;;;;5013467;28;20192;-85
2022/11/24 02:27:53;;;;;;;14.00;4.13;;;;;;;;;;5019645;28;20191;-85
2022/11/24 02:30:20;;;;;;;7.17;3.33;;;;;;;;;;5033870;28;20238;-84
2022/11/24 02:32:47;;;;;;;12.80;3.87;;;;;;;;;;5034287;28;20694;-84
2022/11/24 02:35:15;;;;;;;13.13;3.70;;;;;;;;;;5023629;28;20582;-85
2022/11/24 02:37:42;;;;;;;10.33;3.90;;;;;;;;;;5014378;28;20216;-84
2022/11/24 02:40:10;;;;;;;13.10;3.80;;;;;;;;;;5013748;28;20235;-84
2022/11/24 02:42:39;;;;;;;11.33;4.37;;;;;;;;;;5017289;28;20202;-84
2022/11/24 02:45:09;;;;;;;11.40;3.70;;;;;;;;;;5033300;28;20217;-85
2022/11/24 02:47:36;;;;;;;6.80;3.10;;;;;;;;;;5033990;28;20191;-85
2022/11/24 02:50:03;;;;;;;10.30;3.30;;;;;;;;;;5015031;28;20230;-84
2022/11/24 02:52:30;;;;;;;16.20;4.17;;;;;;;;;;5014016;28;20203;-84
2022/11/24 02:54:57;;;;;;;11.80;4.17;;;;;;;;;;4998716;28;20212;-85
2022/11/24 02:57:24;;;;;;;20.97;4.57;;;;;;;;;;4993800;28;20243;-85
2022/11/24 02:59:51;;;;;;;15.37;3.93;;;;;;;;;;4993998;28;20724;-84
2022/11/24 03:02:20;;;;;;;21.63;4.53;;;;;;;;;;5011004;28;20730;-84
2022/11/24 03:04:47;;;;;;;11.40;4.33;;;;;;;;;;5022030;28;20203;-85
2022/11/24 03:07:14;;;;;;;10.40;3.60;;;;;;;;;;5020520;28;20242;-85
2022/11/24 03:09:41;;;;;;;15.07;4.60;;;;;;;;;;5032355;28;20223;-85
2022/11/24 03:12:08;;;;;;;17.13;4.40;;;;;;;;;;5018292;28;20234;-84
2022/11/24 03:14:35;;;;;;;8.60;3.10;;;;;;;;;;5013781;28;20210;-84
2022/11/24 03:17:02;;;;;;;14.87;4.50;;;;;;;;;;5003578;28;20240;-85
2022/11/24 03:19:31;;;;;;;9.10;3.60;;;;;;;;;;5020553;28;20309;-85
2022/11/24 03:21:58;;;;;;;12.97;3.47;;;;;;;;;;5012903;28;20227;-85
2022/11/24 03:24:26;;;;;;;8.90;3.47;;;;;;;;;;5012424;28;20214;-85
2022/11/24 03:26:53;;;;;;;11.30;3.83;;;;;;;;;;5011850;28;20235;-84
2022/11/24 03:29:20;;;;;;;12.33;5.07;;;;;;;;;;5015892;28;20203;-85
2022/11/24 03:31:47;;;;;;;10.93;3.70;;;;;;;;;;5013972;28;20309;-84
2022/11/24 03:34:14;;;;;;;20.07;5.53;;;;;;;;;;5013382;28;20210;-84
2022/11/24 03:36:42;;;;;;;13.87;3.70;;;;;;;;;;5011794;28;20235;-84
2022/11/24 03:39:09;;;;;;;15.23;3.60;;;;;;;;;;5013625;28;20234;-85
2022/11/24 03:41:36;;;;;;;12.77;3.53;;;;;;;;;;4993177;28;20242;-85
2022/11/24 03:44:04;;;;;;;15.33;4.50;;;;;;;;;;5000808;28;20215;-85
2022/11/24 03:46:31;;;;;;;11.47;3.53;;;;;;;;;;4998507;28;20739;-85
2022/11/24 03:48:58;;;;;;;16.67;4.30;;;;;;;;;;5012780;28;20715;-85
2022/11/24 03:51:25;;;;;;;12.10;3.87;;;;;;;;;;5012626;28;20246;-85
2022/11/24 03:53:53;;;;;;;12.83;3.50;;;;;;;;;;5012949;28;20203;-86
2022/11/24 03:56:20;;;;;;;7.23;3.13;;;;;;;;;;5012699;28;20238;-86
2022/11/24 03:58:47;;;;;;;6.70;2.97;;;;;;;;;;5012848;28;20223;-84
2022/11/24 04:01:14;;;;;;;12.57;3.00;;;;;;;;;;5012097;28;20243;-85
2022/11/24 04:03:41;;;;;;;10.37;3.50;;;;;;;;;;5012738;28;20199;-85
2022/11/24 04:06:09;;;;;;;14.00;3.97;;;;;;;;;;5013861;28;20226;-86
2022/11/24 04:08:36;;;;;;;13.83;4.20;;;;;;;;;;5006871;28;20215;-85
2022/11/24 04:11:04;;;;;;;8.03;2.80;;;;;;;;;;4992410;28;20244;-86
2022/11/24 04:13:30;;;;;;;15.17;3.90;;;;;;;;;;5032363;28;20222;-86
2022/11/24 04:15:57;;;;;;;16.90;3.60;;;;;;;;;;5015645;28;20235;-86
2022/11/24 04:18:24;;;;;;;10.00;3.27;;;;;;;;;;5012555;28;20230;-85
2022/11/24 04:20:52;;;;;;;15.20;3.63;;;;;;;;;;5011955;28;20726;-85
2022/11/24 04:23:19;;;;;;;11.07;3.53;;;;;;;;;;5018610;28;20207;-85
2022/11/24 04:25:46;;;;;;;14.37;4.23;;;;;;;;;;5028462;28;20241;-85
2022/11/24 04:28:15;;;;;;;10.80;3.70;;;;;;;;;;5022645;28;20199;-86
2022/11/24 04:30:43;;;;;;;8.43;3.30;;;;;;;;;;5030285;28;20234;-86
2022/11/24 04:33:11;;;;;;;14.90;4.07;;;;;;;;;;5011420;28;20299;-86
2022/11/24 04:35:38;;;;;;;13.77;3.40;;;;;;;;;;5009937;28;20231;-86
2022/11/24 04:38:05;;;;;;;9.93;3.27;;;;;;;;;;5003021;28;20234;-85
2022/11/24 04:40:32;;;;;;;13.80;3.50;;;;;;;;;;4992742;28;20250;-85
2022/11/24 04:42:59;;;;;;;13.27;3.60;;;;;;;;;;5003166;28;20663;-85
2022/11/24 04:45:28;;;;;;;12.23;3.60;;;;;;;;;;5008071;28;20234;-85
2022/11/24 04:47:55;;;;;;;9.90;3.20;;;;;;;;;;5011867;28;20599;-85
2022/11/24 04:50:22;;;;;;;14.53;3.93;;;;;;;;;;5011573;28;20700;-86
2022/11/24 04:52:49;;;;;;;10.27;3.30;;;;;;;;;;5012179;28;20717;-85
2022/11/24 04:55:16;;;;;;;13.23;3.50;;;;;;;;;;5011452;28;20667;-85
2022/11/24 04:57:43;;;;;;;12.43;3.93;;;;;;;;;;5011911;28;20210;-86
2022/11/24 05:00:10;;;;;;;17.43;3.83;;;;;;;;;;5011753;28;20235;-86
2022/11/24 05:02:39;;;;;;;15.33;4.37;;;;;;;;;;5012095;28;20214;-86
2022/11/24 05:05:07;;;;;;;14.10;3.70;;;;;;;;;;4993486;28;20212;-90
2022/11/24 05:07:34;;;;;;;10.20;3.07;;;;;;;;;;5007659;28;20210;-86
2022/11/24 05:12:46;;;;;;;13.40;4.03;;;;;;;;;;5011326;28;20322;-84
2022/11/24 05:15:13;;;;;;;15.90;4.20;;;;;;;;;;5010831;28;20656;-84
2022/11/24 05:17:41;;;;;;;14.57;3.27;;;;;;;;;;5011575;28;20200;-84
2022/11/24 05:20:09;;;;;;;16.73;3.57;;;;;;;;;;5011122;28;20607;-84
2022/11/24 05:22:36;;;;;;;14.10;4.13;;;;;;;;;;5011703;28;20688;-84
2022/11/24 05:25:03;;;;;;;8.47;3.67;;;;;;;;;;5011249;28;20208;-84
2022/11/24 05:27:30;;;;;;;12.27;3.73;;;;;;;;;;5011978;28;20219;-85
2022/11/24 05:29:57;;;;;;;12.40;3.07;;;;;;;;;;5011700;28;20235;-86
2022/11/24 05:32:25;;;;;;;13.23;3.37;;;;;;;;;;5011142;28;20730;-86
2022/11/24 05:34:53;;;;;;;7.87;3.37;;;;;;;;;;5011626;28;20207;-86
2022/11/24 05:37:20;;;;;;;12.60;3.70;;;;;;;;;;5010384;28;20323;-87
2022/11/24 05:39:47;;;;;;;15.67;4.40;;;;;;;;;;5010139;28;20238;-86
2022/11/24 05:44:59;;;;;;;15.50;3.73;;;;;;;;;;5011354;28;20576;-84
2022/11/24 05:47:26;;;;;;;15.17;3.70;;;;;;;;;;5011446;28;20678;-86
2022/11/24 05:49:55;;;;;;;11.87;3.93;;;;;;;;;;5011569;28;20246;-85
2022/11/24 05:52:22;;;;;;;15.67;5.10;;;;;;;;;;5011153;28;20235;-86
2022/11/24 05:54:49;;;;;;;13.70;2.70;;;;;;;;;;5011640;28;20207;-85
2022/11/24 05:57:16;;;;;;;15.30;3.63;;;;;;;;;;5011206;28;20235;-86
2022/11/24 05:59:44;;;;;;;10.13;3.47;;;;;;;;;;5011716;28;20242;-85
2022/11/24 06:02:11;;;;;;;14.07;4.30;;;;;;;;;;5014948;28;20231;-86
2022/11/24 06:04:38;;;;;;;7.63;3.23;;;;;;;;;;5015170;28;20216;-86
2022/11/24 06:07:07;;;;;;;13.00;3.77;;;;;;;;;;5014366;28;20235;-85
2022/11/24 06:09:36;;;;;;;11.47;3.80;;;;;;;;;;5014766;28;20258;-85
2022/11/24 06:12:03;;;;;;;11.80;3.60;;;;;;;;;;5014385;28;20243;-85
2022/11/24 06:14:30;;;;;;;11.10;4.43;;;;;;;;;;5013932;28;20220;-85
2022/11/24 06:16:57;;;;;;;14.50;4.83;;;;;;;;;;5014336;28;20270;-85
2022/11/24 06:19:24;;;;;;;13.70;4.40;;;;;;;;;;5014564;28;20242;-84
2022/11/24 06:21:52;;;;;;;10.20;2.90;;;;;;;;;;5016511;28;20262;-86
2022/11/24 06:24:20;;;;;;;15.50;3.23;;;;;;;;;;5016996;28;20214;-86
2022/11/24 06:26:47;;;;;;;17.73;4.00;;;;;;;;;;5015342;28;20239;-86
2022/11/24 06:29:15;;;;;;;12.50;3.97;;;;;;;;;;5015102;28;20214;-86
2022/11/24 06:31:42;;;;;;;14.87;4.10;;;;;;;;;;5016134;28;20242;-86
2022/11/24 06:34:10;;;;;;;11.30;3.77;;;;;;;;;;5015520;28;20227;-85
2022/11/24 06:36:37;;;;;;;18.63;4.63;;;;;;;;;;5015478;28;20273;-86
2022/11/24 06:39:05;;;;;;;13.23;4.17;;;;;;;;;;5015386;28;20231;-86
2022/11/24 06:41:34;;;;;;;19.10;4.77;;;;;;;;;;5015136;28;20715;-86
2022/11/24 06:44:02;;;;;;;11.40;3.43;;;;;;;;;;5016450;28;20554;-86
2022/11/24 06:46:29;;;;;;;15.27;3.20;;;;;;;;;;5015683;28;20607;-86
2022/11/24 06:48:58;;;;;;;14.83;3.90;;;;;;;;;;5015326;28;20676;-85
2022/11/24 06:51:26;;;;;;;12.50;4.30;;;;;;;;;;5014780;28;20249;-86
2022/11/24 06:53:53;;;;;;;14.40;3.80;;;;;;;;;;5015539;28;20281;-86
2022/11/24 06:56:21;;;;;;;9.33;3.10;;;;;;;;;;5015546;28;20239;-86
2022/11/24 06:58:50;;;;;;;13.00;4.57;;;;;;;;;;5015477;28;20322;-86
2022/11/24 07:01:17;;;;;;;11.37;4.27;;;;;;;;;;5014428;28;20239;-86
2022/11/24 07:03:44;;;;;;;13.50;4.30;;;;;;;;;;5014962;28;20203;-86
2022/11/24 07:06:12;;;;;;;17.23;5.37;;;;;;;;;;5015137;28;20246;-86
2022/11/24 07:08:39;;;;;;;15.27;4.93;;;;;;;;;;5014969;28;20209;-87
2022/11/24 07:11:06;;;;;;;18.93;4.70;;;;;;;;;;5016877;28;20811;-84
2022/11/24 07:13:34;;;;;;;13.90;4.20;;;;;;;;;;5019112;28;20203;-85
2022/11/24 07:16:10;;;;;;;12.67;3.80;;;;;;;;;;5013250;28;20265;-85
2022/11/24 07:18:37;;;;;;;11.60;3.90;;;;;;;;;;5011974;28;20301;-85
2022/11/24 07:21:07;;;;;;;13.17;3.97;;;;;;;;;;5012629;28;20239;-86
2022/11/24 07:23:34;;;;;;;10.53;3.90;;;;;;;;;;5014034;28;20207;-86
2022/11/24 07:26:03;;;;;;;11.17;3.73;;;;;;;;;;5014335;28;20246;-85
2022/11/24 07:28:30;;;;;;;13.13;3.50;;;;;;;;;;5014168;28;20215;-85
2022/11/24 07:30:57;;;;;;;15.17;5.10;;;;;;;;;;5026219;23;20233;-81
2022/11/24 07:33:26;;;;;;;17.80;4.40;;;;;;;;;;5012848;28;20207;-82
2022/11/24 07:35:53;;;;;;;13.30;5.07;;;;;;;;;;5012474;28;20253;-82
2022/11/24 07:38:20;;;;;;;12.93;3.83;;;;;;;;;;5012656;28;20207;-81
2022/11/24 07:40:47;;;;;;;9.87;3.67;;;;;;;;;;5012162;28;20741;-81
2022/11/24 07:43:15;;;;;;;9.97;3.23;;;;;;;;;;5012767;28;20192;-81
2022/11/24 07:45:42;;;;;;;7.90;3.50;;;;;;;;;;5012379;28;20231;-82
2022/11/24 07:48:10;;;;;;;11.40;4.00;;;;;;;;;;5012382;28;20199;-81
2022/11/24 07:50:39;;;;;;;15.40;3.53;;;;;;;;;;5011994;28;20323;-81
2022/11/24 07:53:06;;;;;;;10.87;3.40;;;;;;;;;;5012274;28;20204;-81
2022/11/24 07:55:33;;;;;;;16.13;4.17;;;;;;;;;;5011726;28;20254;-81
2022/11/24 07:58:00;;;;;;;15.20;4.60;;;;;;;;;;5012102;28;20218;-81
2022/11/24 08:00:27;;;;;;;15.57;5.13;;;;;;;;;;5011477;28;20235;-81
2022/11/24 08:02:55;;;;;;;10.60;3.97;;;;;;;;;;5012642;28;20191;-81
2022/11/24 08:05:23;;;;;;;10.57;4.33;;;;;;;;;;5011879;28;20235;-81
2022/11/24 08:07:51;;;;;;;4.97;2.47;;;;;;;;;;5011958;28;20680;-81
2022/11/24 08:10:18;;;;;;;12.03;4.57;;;;;;;;;;5011486;28;20235;-81
2022/11/24 08:12:45;;;;;;;17.00;5.43;;;;;;;;;;5012147;28;20644;-81
2022/11/24 08:15:13;;;;;;;9.03;4.00;;;;;;;;;;5011637;28;20211;-81
2022/11/24 08:17:40;;;;;;;12.00;3.47;;;;;;;;;;5012302;28;20215;-81
2022/11/24 08:20:08;;;;;;;8.97;3.87;;;;;;;;;;5011376;28;20602;-81
2022/11/24 08:22:35;;;;;;;13.90;4.23;;;;;;;;;;5011613;28;20208;-79
2022/11/24 08:25:04;;;;;;;12.20;4.13;;;;;;;;;;5009827;28;20545;-79
2022/11/24 08:27:31;;;;;;;15.10;4.47;;;;;;;;;;5011769;28;20215;-81
2022/11/24 08:29:58;;;;;;;5.97;4.07;;;;;;;;;;5011822;28;20200;-80
2022/11/24 08:32:25;;;;;;;13.00;3.47;;;;;;;;;;5011716;28;20235;-80
2022/11/24 08:34:52;;;;;;;12.00;4.00;;;;;;;;;;5011745;28;20207;-80
2022/11/24 08:37:19;;;;;;;7.60;3.50;;;;;;;;;;5011323;28;20249;-82
2022/11/24 08:39:46;;;;;;;8.87;3.07;;;;;;;;;;5011629;28;20223;-82
2022/11/24 08:42:15;;;;;;;5.80;2.73;;;;;;;;;;5011290;28;20247;-82
2022/11/24 08:44:42;;;;;;;7.83;3.50;;;;;;;;;;5011671;28;20573;-82
2022/11/24 08:47:09;;;;;;;10.43;3.30;;;;;;;;;;5011314;28;20239;-82
2022/11/24 08:49:36;;;;;;;10.93;5.63;;;;;;;;;;5011586;28;20207;-81
2022/11/24 08:52:03;;;;;;;18.03;3.50;;;;;;;;;;5011220;28;20613;-81
2022/11/24 08:54:30;;;;;;;11.50;3.43;;;;;;;;;;5011717;28;20215;-81
2022/11/24 08:56:57;;;;;;;9.33;3.30;;;;;;;;;;5011198;28;20235;-81
2022/11/24 08:59:26;;;;;;;8.83;3.30;;;;;;;;;;5011551;28;20254;-81
2022/11/24 09:01:53;;;;;;;9.83;3.33;;;;;;;;;;5011184;28;20640;-81
2022/11/24 09:04:20;;;;;;;7.63;3.17;;;;;;;;;;5011413;28;20219;-82
2022/11/24 09:06:47;;;;;;;7.43;3.37;;;;;;;;;;5011029;28;20234;-81
2022/11/24 09:09:14;;;;;;;12.17;3.47;;;;;;;;;;5011458;28;20207;-81
2022/11/24 09:11:41;;;;;;;7.07;2.90;;;;;;;;;;5010865;28;20612;-81
2022/11/24 09:14:08;;;;;;;5.10;2.37;;;;;;;;;;5011577;28;20203;-83
2022/11/24 09:16:37;;;;;;;6.50;3.27;;;;;;;;;;5010984;28;20235;-81
2022/11/24 09:19:05;;;;;;;5.90;2.50;;;;;;;;;;5011328;28;20663;-81
2022/11/24 09:21:33;;;;;;;8.97;3.10;;;;;;;;;;5010753;28;20240;-82
2022/11/24 09:24:00;;;;;;;7.57;3.13;;;;;;;;;;5011532;28;20219;-82
2022/11/24 09:26:28;;;;;;;7.13;2.30;;;;;;;;;;5010861;28;20239;-81
2022/11/24 09:28:55;;;;;;;7.40;2.97;;;;;;;;;;5011182;28;20585;-82
2022/11/24 09:31:24;;;;;;;7.37;3.20;;;;;;;;;;5010625;28;20246;-81
2022/11/24 09:33:52;;;;;;;4.03;2.47;;;;;;;;;;5012460;28;20207;-82
2022/11/24 09:36:19;;;;;;;10.77;3.17;;;;;;;;;;5014493;28;20235;-82
2022/11/24 09:38:47;;;;;;;13.03;3.17;;;;;;;;;;5014888;28;20301;-82
2022/11/24 09:41:24;;;;;;;8.37;2.87;;;;;;;;;;5014565;28;20250;-82
2022/11/24 09:43:56;;;;;;;13.87;4.17;;;;;;;;;;5015060;28;20187;-81
2022/11/24 09:46:27;;;;;;;10.00;3.10;;;;;;;;;;5014418;28;20243;-82
2022/11/24 09:48:57;;;;;;;7.07;2.70;;;;;;;;;;5014896;28;20207;-82
2022/11/24 09:51:28;;;;;;;10.63;3.27;;;;;;;;;;5014300;28;20253;-81
2022/11/24 09:53:57;;;;;;;8.90;3.20;;;;;;;;;;5014951;28;20192;-82
2022/11/24 09:56:25;;;;;;;8.30;2.83;;;;;;;;;;5014996;28;20239;-82
2022/11/24 09:58:54;;;;;;;7.70;2.47;;;;;;;;;;5015075;28;20219;-81
2022/11/24 10:01:23;;;;;;;9.00;3.30;;;;;;;;;;5014182;28;20254;-81
2022/11/24 10:03:51;;;;;;;6.67;2.60;;;;;;;;;;5015103;28;20207;-81
2022/11/24 10:06:24;;;;;;;6.87;2.90;;;;;;;;;;5014553;28;20238;-82
2022/11/24 10:09:06;;;;;;;11.63;4.07;;;;;;;;;;5015037;28;20274;-81
2022/11/24 10:11:37;;;;;;;6.10;2.47;;;;;;;;;;5014193;28;20243;-82
2022/11/24 10:14:13;;;;;;;7.07;2.83;;;;;;;;;;5014635;28;20207;-81
2022/11/24 10:16:47;;;;;;;7.30;2.73;;;;;;;;;;5013988;28;20650;-81
2022/11/24 10:19:18;;;;;;;11.40;3.23;;;;;;;;;;5014804;28;20192;-81
2022/11/24 10:21:59;;;;;;;8.90;2.70;;;;;;;;;;5013666;28;20818;-82
2022/11/24 10:24:35;;;;;;;13.20;2.97;;;;;;;;;;5014507;28;20203;-81
2022/11/24 10:27:03;;;;;;;8.23;2.90;;;;;;;;;;5014009;28;20231;-81
2022/11/24 10:29:34;;;;;;;9.87;2.60;;;;;;;;;;5014451;28;20231;-81
2022/11/24 10:32:04;;;;;;;7.13;2.97;;;;;;;;;;5013351;28;20243;-82
2022/11/24 10:34:34;;;;;;;6.07;2.43;;;;;;;;;;5013831;28;20207;-82
2022/11/24 10:37:06;;;;;;;8.53;2.73;;;;;;;;;;5013688;28;20232;-82
2022/11/24 10:39:36;;;;;;;9.17;3.03;;;;;;;;;;5014052;28;20195;-81
2022/11/24 10:42:07;;;;;;;8.17;2.10;;;;;;;;;;5013533;28;20234;-82
2022/11/24 10:44:34;;;;;;;3.27;1.77;;;;;;;;;;5014227;28;20215;-82
2022/11/24 10:47:01;;;;;;;8.17;2.70;;;;;;;;;;5012829;28;20238;-82
2022/11/24 10:49:31;;;;;;;9.57;2.70;;;;;;;;;;5013795;28;20218;-82
2022/11/24 10:52:04;;;;;;;9.13;2.70;;;;;;;;;;5013333;28;20239;-82
2022/11/24 10:54:34;;;;;;;14.27;4.40;;;;;;;;;;5013656;28;20644;-82
2022/11/24 10:57:01;;;;;;;10.93;4.03;;;;;;;;;;5013383;28;20231;-82
2022/11/24 10:59:33;;;;;;;9.27;3.27;;;;;;;;;;5013423;28;20667;-84
2022/11/24 11:02:00;;;;;;;7.77;2.50;;;;;;;;;;5012846;28;21191;-82
2022/11/24 11:04:28;;;;;;;7.30;3.03;;;;;;;;;;5013778;28;20214;-82
2022/11/24 11:07:08;;;;;;;9.37;3.40;;;;;;;;;;5012534;28;20239;-81
2022/11/24 11:09:37;;;;;;;9.20;3.07;;;;;;;;;;5012888;28;20207;-82
2022/11/24 11:12:11;;;;;;;5.87;2.90;;;;;;;;;;5013053;28;20258;-82
2022/11/24 11:14:38;;;;;;;8.60;2.70;;;;;;;;;;5013503;28;20275;-82
2022/11/24 11:17:20;;;;;;;9.60;3.60;;;;;;;;;;5016796;28;20898;-82
2022/11/24 11:19:48;;;;;;;4.70;2.93;;;;;;;;;;5012872;28;20211;-82
2022/11/24 11:22:19;;;;;;;4.57;2.30;;;;;;;;;;5012722;28;20235;-82
2022/11/24 11:24:48;;;;;;;7.60;2.63;;;;;;;;;;5013473;28;20191;-79
2022/11/24 11:27:18;;;;;;;7.97;2.40;;;;;;;;;;5012300;28;20227;-80
2022/11/24 11:29:45;;;;;;;8.87;2.97;;;;;;;;;;5012772;28;20203;-80
2022/11/24 11:32:18;;;;;;;8.27;2.43;;;;;;;;;;5012411;28;20235;-79
2022/11/24 11:34:45;;;;;;;10.33;2.60;;;;;;;;;;5013632;28;20194;-79
2022/11/24 11:37:13;;;;;;;7.80;2.70;;;;;;;;;;5012513;28;20235;-79
2022/11/24 11:39:41;;;;;;;4.30;2.20;;;;;;;;;;5012960;28;20211;-79
2022/11/24 11:42:18;;;;;;;2.50;1.73;;;;;;;;;;5012176;28;20235;-79
2022/11/24 11:44:47;;;;;;;6.53;2.40;;;;;;;;;;5013019;28;20250;-79
2022/11/24 11:47:18;;;;;;;4.23;2.33;;;;;;;;;;5012182;28;20623;-79
2022/11/24 11:49:45;;;;;;;7.13;2.73;;;;;;;;;;5012461;28;20644;-79
2022/11/24 11:52:21;;;;;;;9.57;2.70;;;;;;;;;;5011984;28;20621;-79
2022/11/24 11:55:00;;;;;;;11.93;2.67;;;;;;;;;;5012855;28;20210;-79
2022/11/24 11:57:34;;;;;;;10.30;2.93;;;;;;;;;;5011496;28;20222;-79
2022/11/24 12:00:08;;;;;;;6.37;2.67;;;;;;;;;;5012199;28;20191;-78
2022/11/24 12:02:53;;;;;;;5.73;2.40;;;;;;;;;;5012652;28;20244;-79
2022/11/24 12:05:26;;;;;;;7.90;2.23;;;;;;;;;;5012114;28;20235;-79
2022/11/24 12:08:02;;;;;;;9.17;2.60;;;;;;;;;;5012093;28;20218;-79
2022/11/24 12:10:35;;;;;;;10.53;4.40;;;;;;;;;;5012078;28;20654;-79
2022/11/24 12:13:20;;;;;;;10.13;3.23;;;;;;;;;;5012271;28;20214;-80
2022/11/24 12:15:48;;;;;;;4.63;2.73;;;;;;;;;;5011722;28;20235;-79
2022/11/24 12:18:22;;;;;;;2.73;1.50;;;;;;;;;;5011690;28;20207;-79
2022/11/24 12:20:56;;;;;;;11.10;2.93;;;;;;;;;;5011448;28;20249;-80
2022/11/24 12:23:30;;;;;;;5.67;2.30;;;;;;;;;;5012161;28;20275;-79
2022/11/24 12:25:59;;;;;;;6.23;2.80;;;;;;;;;;5011680;28;20606;-79
2022/11/24 12:28:33;;;;;;;5.47;2.10;;;;;;;;;;5011809;28;20680;-79
2022/11/24 12:31:05;;;;;;;6.97;2.20;;;;;;;;;;5011571;28;20239;-81
2022/11/24 12:33:44;;;;;;;3.50;2.00;;;;;;;;;;5011852;28;20191;-82
2022/11/24 12:36:17;;;;;;;5.07;2.27;;;;;;;;;;5011749;28;20241;-82
2022/11/24 12:38:49;;;;;;;4.80;2.63;;;;;;;;;;5011895;28;20207;-81
2022/11/24 12:41:25;;;;;;;5.30;2.30;;;;;;;;;;5011283;28;20636;-81
2022/11/24 12:43:55;;;;;;;11.37;2.80;;;;;;;;;;5012110;28;20253;-81
2022/11/24 12:46:28;;;;;;;12.10;2.50;;;;;;;;;;5011378;28;20231;-81
2022/11/24 12:49:00;;;;;;;5.60;2.27;;;;;;;;;;5011853;28;20195;-81
2022/11/24 12:51:29;;;;;;;8.03;2.40;;;;;;;;;;5011323;28;20239;-82
2022/11/24 12:53:57;;;;;;;7.47;2.47;;;;;;;;;;5011942;28;20273;-81
2022/11/24 12:56:29;;;;;;;8.10;2.33;;;;;;;;;;5011284;28;20235;-81
2022/11/24 12:59:01;;;;;;;11.23;2.80;;;;;;;;;;5011761;28;20188;-82
2022/11/24 13:01:31;;;;;;;4.90;2.50;;;;;;;;;;5011201;28;20719;-81
2022/11/24 13:04:05;;;;;;;7.90;2.53;;;;;;;;;;5011872;28;20199;-82
2022/11/24 13:06:37;;;;;;;6.23;2.27;;;;;;;;;;5011419;28;20244;-81
2022/11/24 13:09:08;;;;;;;10.40;2.90;;;;;;;;;;5012786;28;20196;-81
2022/11/24 13:11:40;;;;;;;4.43;2.20;;;;;;;;;;5015113;28;20293;-81
2022/11/24 13:14:13;;;;;;;7.83;3.13;;;;;;;;;;5012477;28;20553;-81
2022/11/24 13:16:49;;;;;;;6.23;2.60;;;;;;;;;;4995572;28;20235;-80
2022/11/24 13:19:18;;;;;;;4.00;2.83;;;;;;;;;;4995640;28;20191;-80
2022/11/24 13:21:50;;;;;;;9.90;2.63;;;;;;;;;;4995973;28;20223;-80
2022/11/24 13:24:25;;;;;;;8.60;2.20;;;;;;;;;;5015573;28;20200;-80
2022/11/24 13:26:53;;;;;;;5.53;2.37;;;;;;;;;;5014760;28;20710;-79
2022/11/24 13:29:32;;;;;;;10.70;2.90;;;;;;;;;;5015191;28;20207;-81
2022/11/24 13:32:14;;;;;;;7.33;2.30;;;;;;;;;;5015042;28;20605;-80
2022/11/24 13:35:03;;;;;;;9.57;2.67;;;;;;;;;;5014980;28;20667;-79
2022/11/24 13:37:47;;;;;;;7.90;2.50;;;;;;;;;;5014954;28;20246;-79
2022/11/24 13:40:33;;;;;;;9.33;2.77;;;;;;;;;;5014277;28;20285;-79
2022/11/24 13:43:19;;;;;;;8.67;3.20;;;;;;;;;;5015352;28;20240;-79
2022/11/24 13:45:51;;;;;;;5.90;2.20;;;;;;;;;;5014780;28;20239;-79
2022/11/24 13:48:37;;;;;;;7.73;3.57;;;;;;;;;;5014716;28;20207;-80
2022/11/24 13:51:09;;;;;;;7.53;3.60;;;;;;;;;;5014475;28;20230;-80
2022/11/24 13:53:37;;;;;;;7.73;2.93;;;;;;;;;;5015042;28;20207;-81
2022/11/24 13:56:08;;;;;;;15.77;3.20;;;;;;;;;;5014649;28;20235;-80
2022/11/24 13:58:37;;;;;;;9.37;4.03;;;;;;;;;;5014690;28;20191;-81
2022/11/24 14:01:17;;;;;;;7.30;2.87;;;;;;;;;;5014113;28;20243;-80
2022/11/24 14:03:47;;;;;;;9.03;3.20;;;;;;;;;;5014774;28;20188;-81
2022/11/24 14:06:18;;;;;;;7.27;2.97;;;;;;;;;;5014211;28;20656;-80
2022/11/24 14:08:46;;;;;;;10.77;3.23;;;;;;;;;;5014753;28;20192;-80
2022/11/24 14:11:17;;;;;;;8.43;2.90;;;;;;;;;;5014197;28;20239;-81
2022/11/24 14:13:44;;;;;;;10.87;3.20;;;;;;;;;;5014564;28;20211;-80
2022/11/24 14:16:16;;;;;;;8.97;3.40;;;;;;;;;;5013696;28;20767;-81
2022/11/24 14:18:44;;;;;;;7.87;3.03;;;;;;;;;;5015667;28;20203;-80
2022/11/24 14:21:28;;;;;;;10.00;3.10;;;;;;;;;;5012831;28;20286;-80
2022/11/24 14:23:57;;;;;;;3.27;2.23;;;;;;;;;;5014637;28;20214;-80
2022/11/24 14:26:26;;;;;;;5.23;2.63;;;;;;;;;;5014046;28;20602;-80
2022/11/24 14:28:55;;;;;;;5.60;2.63;;;;;;;;;;5014553;28;20195;-80
2022/11/24 14:31:25;;;;;;;7.47;2.87;;;;;;;;;;5013352;28;20241;-80
2022/11/24 14:34:08;;;;;;;9.30;2.90;;;;;;;;;;5014412;28;20196;-80
2022/11/24 14:36:35;;;;;;;6.93;2.60;;;;;;;;;;5013622;28;20254;-81
2022/11/24 14:39:02;;;;;;;8.37;2.70;;;;;;;;;;5013990;28;20200;-80
2022/11/24 14:41:29;;;;;;;6.97;2.80;;;;;;;;;;5013374;28;20729;-80
2022/11/24 14:44:07;;;;;;;7.90;2.40;;;;;;;;;;5014248;28;20218;-81
2022/11/24 14:46:37;;;;;;;3.67;2.43;;;;;;;;;;5013106;28;20234;-82
2022/11/24 14:49:04;;;;;;;7.00;2.47;;;;;;;;;;5013274;28;20203;-80
2022/11/24 14:51:33;;;;;;;8.37;2.90;;;;;;;;;;5012296;28;20246;-81
2022/11/24 14:54:01;;;;;;;6.90;3.00;;;;;;;;;;4997073;28;20208;-80